Time;durP1;ratioP1;P1;durP2;ratioP2;P2;SDS_P1;SDS_P2;PMS_P1;PMS_P2;Temp;Humidity;BMP_temperature;BMP_pressure;BME280_temperature;BME280_humidity;BME280_pressure;Samples;Min_cycle;Max_cycle;Signal;HPM_P1;HPM_P2
2021/10/02 00:35:22;;;;;;;9.10;5.30;;;;;;;8.26;43.97;101835.46;117306;1185;21845;-49
2021/10/02 00:45:42;;;;;;;11.60;5.70;;;;;;;8.19;44.16;101840.56;117291;1182;22648;-49
2021/10/02 00:48:10;;;;;;;13.60;7.20;;;;;;;8.17;44.19;101839.31;117247;1185;21855;-48
2021/10/02 00:50:39;;;;;;;11.40;6.60;;;;;;;8.20;44.13;101836.73;117237;1186;23543;-49
2021/10/02 00:53:08;;;;;;;9.20;5.60;;;;;;;8.24;43.95;101839.80;117268;1185;23564;-48
2021/10/02 00:55:36;;;;;;;13.90;6.10;;;;;;;8.16;44.07;101834.05;117282;1186;23459;-48
2021/10/02 00:58:04;;;;;;;8.60;5.80;;;;;;;8.13;44.24;101831.53;117260;1180;21845;-48
2021/10/02 01:00:34;;;;;;;9.00;6.50;;;;;;;8.12;44.20;101827.14;117243;1180;23595;-48
2021/10/02 01:03:15;;;;;;;12.20;6.10;;;;;;;8.10;44.09;101824.83;117279;1185;23545;-48
2021/10/02 01:05:51;;;;;;;8.40;5.60;;;;;;;8.09;44.13;101824.97;117251;1185;23440;-48
2021/10/02 01:08:43;;;;;;;9.60;5.20;;;;;;;8.07;44.17;101821.59;117296;1180;21867;-49
2021/10/02 01:11:34;;;;;;;9.60;5.50;;;;;;;8.03;44.24;101824.31;117317;1182;22619;-49
2021/10/02 01:14:43;;;;;;;8.00;4.80;;;;;;;7.98;44.20;101823.34;117246;1185;21855;-49
2021/10/02 01:17:35;;;;;;;8.20;5.00;;;;;;;7.96;44.29;101820.66;117338;1184;21853;-49
2021/10/02 01:20:13;;;;;;;11.30;5.70;;;;;;;7.94;44.46;101821.52;117356;1185;21885;-49
2021/10/02 01:23:12;;;;;;;9.00;5.00;;;;;;;7.92;44.27;101817.63;117344;1182;23082;-49
2021/10/02 01:25:58;;;;;;;10.00;5.20;;;;;;;7.90;44.32;101817.23;117189;1186;22951;-48
2021/10/02 01:28:27;;;;;;;9.40;5.10;;;;;;;7.87;44.34;101820.84;117228;1185;23545;-48
2021/10/02 01:31:02;;;;;;;12.30;4.70;;;;;;;7.86;44.41;101821.34;117052;1187;23544;-48
2021/10/02 01:34:26;;;;;;;9.30;4.80;;;;;;;7.85;44.46;101822.72;117136;1185;21852;-48
2021/10/02 01:47:26;;;;;;;12.50;5.90;;;;;;;7.79;44.30;101818.38;117357;1185;23466;-49
2021/10/02 01:49:55;;;;;;;7.90;5.10;;;;;;;7.77;44.51;101817.80;117369;1183;23463;-49
2021/10/02 01:52:32;;;;;;;9.00;4.90;;;;;;;7.73;44.39;101816.33;117289;1183;23006;-49
2021/10/02 01:55:01;;;;;;;12.80;5.20;;;;;;;7.70;44.54;101819.77;117079;1187;23763;-49
2021/10/02 01:57:38;;;;;;;10.60;5.30;;;;;;;7.68;44.51;101817.98;117263;1186;23466;-49
2021/10/02 02:00:08;;;;;;;9.20;4.60;;;;;;;7.67;44.65;101822.67;117142;1186;22045;-49
2021/10/02 02:02:40;;;;;;;10.50;5.70;;;;;;;7.66;44.64;101823.15;117327;1185;21841;-48
2021/10/02 02:05:09;;;;;;;12.50;7.00;;;;;;;7.64;44.42;101821.89;117385;1185;23630;-49
2021/10/02 02:07:41;;;;;;;13.70;7.10;;;;;;;7.63;44.38;101824.66;117334;1185;21885;-49
2021/10/02 02:10:09;;;;;;;9.40;6.70;;;;;;;7.62;44.49;101823.94;117330;1185;23436;-49
2021/10/02 02:12:37;;;;;;;17.50;6.40;;;;;;;7.58;44.35;101822.81;117170;1186;22736;-48
2021/10/02 02:15:09;;;;;;;11.70;6.10;;;;;;;7.61;44.28;101824.44;117266;1185;23634;-50
2021/10/02 02:17:43;;;;;;;11.50;6.00;;;;;;;7.61;44.24;101822.18;117284;1183;22010;-48
2021/10/02 02:20:16;;;;;;;9.00;5.40;;;;;;;7.51;44.43;101820.90;117328;1185;24138;-49
2021/10/02 02:22:44;;;;;;;8.40;5.20;;;;;;;7.47;44.50;101816.77;117300;1186;21852;-48
2021/10/02 02:25:12;;;;;;;8.90;4.80;;;;;;;7.43;44.49;101818.27;117163;1183;21857;-49
2021/10/02 02:27:40;;;;;;;10.20;4.70;;;;;;;7.42;44.45;101818.95;117259;1183;23544;-49
2021/10/02 02:30:09;;;;;;;10.20;5.20;;;;;;;7.42;44.32;101819.46;117358;1186;23564;-49
2021/10/02 02:32:39;;;;;;;12.00;5.10;;;;;;;7.38;44.49;101818.67;117417;1185;23540;-49
2021/10/02 02:35:08;;;;;;;8.00;5.10;;;;;;;7.36;44.39;101822.98;117297;1186;23608;-49
2021/10/02 02:37:36;;;;;;;8.80;5.30;;;;;;;7.36;44.61;101820.89;117306;1185;23101;-49
2021/10/02 02:40:06;;;;;;;9.40;5.30;;;;;;;7.36;44.60;101821.76;117280;1186;23541;-49
2021/10/02 02:42:34;;;;;;;12.00;4.90;;;;;;;7.32;44.41;101820.42;117336;1186;21867;-49
2021/10/02 02:45:04;;;;;;;13.50;5.80;;;;;;;7.26;44.56;101817.17;117263;1185;23554;-49
2021/10/02 02:47:32;;;;;;;11.60;5.40;;;;;;;7.22;44.69;101818.11;117201;1182;22096;-50
2021/10/02 02:50:19;;;;;;;7.90;4.60;;;;;;;7.18;44.83;101816.27;117255;1185;23811;-49
2021/10/02 02:52:52;;;;;;;10.60;5.20;;;;;;;7.12;44.67;101820.30;117260;1185;21862;-49
2021/10/02 02:55:21;;;;;;;10.70;5.90;;;;;;;7.06;44.49;101813.02;117320;1185;21916;-49
2021/10/02 02:57:54;;;;;;;9.50;5.20;;;;;;;7.04;44.45;101813.13;117257;1186;23630;-49
2021/10/02 03:00:23;;;;;;;9.60;5.10;;;;;;;7.03;44.60;101811.17;117338;1185;23552;-49
2021/10/02 03:02:53;;;;;;;11.90;5.30;;;;;;;7.01;44.73;101813.58;117373;1186;21862;-50
2021/10/02 03:05:23;;;;;;;7.90;4.80;;;;;;;7.00;44.85;101809.36;117232;1186;23541;-49
2021/10/02 03:08:13;;;;;;;8.60;4.70;;;;;;;6.98;44.80;101810.18;117269;1186;21891;-48
2021/10/02 03:10:46;;;;;;;9.90;4.80;;;;;;;6.95;44.75;101809.26;117376;1182;23637;-49
2021/10/02 03:13:35;;;;;;;13.30;5.50;;;;;;;6.92;44.71;101808.11;117294;1186;22918;-49
2021/10/02 03:16:06;;;;;;;9.50;4.80;;;;;;;6.91;44.81;101803.89;117337;1183;23436;-49
2021/10/02 03:19:02;;;;;;;7.70;4.70;;;;;;;6.91;44.81;101804.77;117229;1186;21847;-49
2021/10/02 03:21:31;;;;;;;10.10;5.00;;;;;;;6.91;45.19;101799.20;117282;1185;21859;-49
2021/10/02 03:24:02;;;;;;;8.30;4.60;;;;;;;6.93;44.77;101802.20;117231;1183;23638;-49
2021/10/02 03:26:31;;;;;;;24.20;5.60;;;;;;;6.94;44.70;101796.12;117299;1181;22916;-49
2021/10/02 03:29:13;;;;;;;15.50;5.20;;;;;;;6.96;44.84;101799.32;117305;1182;24012;-49
2021/10/02 03:31:41;;;;;;;9.50;5.20;;;;;;;6.94;44.86;101799.24;117250;1185;23476;-49
2021/10/02 03:34:10;;;;;;;16.10;7.00;;;;;;;6.93;44.94;101799.59;117352;1185;21844;-49
2021/10/02 03:36:39;;;;;;;11.50;6.40;;;;;;;6.94;44.80;101797.85;117201;1186;24003;-49
2021/10/02 03:39:07;;;;;;;9.60;5.10;;;;;;;6.94;44.97;101798.73;117338;1186;21856;-49
2021/10/02 03:41:36;;;;;;;10.60;5.80;;;;;;;6.92;45.01;101800.09;117263;1183;23541;-49
2021/10/02 03:44:05;;;;;;;10.20;5.80;;;;;;;6.90;45.18;101799.35;117366;1183;23563;-48
2021/10/02 03:46:34;;;;;;;11.70;5.40;;;;;;;6.90;44.82;101793.40;117359;1185;23871;-48
2021/10/02 03:49:04;;;;;;;11.40;6.00;;;;;;;6.93;45.16;101794.52;117175;1189;23557;-48
2021/10/02 03:51:32;;;;;;;9.00;5.90;;;;;;;6.99;45.39;101788.91;117392;1185;21853;-49
2021/10/02 03:54:01;;;;;;;13.50;6.00;;;;;;;7.06;45.03;101791.01;117324;1186;21880;-48
2021/10/02 03:56:31;;;;;;;13.70;6.20;;;;;;;7.11;45.23;101791.30;117355;1186;24016;-49
2021/10/02 03:59:00;;;;;;;12.20;6.60;;;;;;;7.17;45.21;101791.11;117376;1180;21867;-48
2021/10/02 04:01:29;;;;;;;14.30;5.60;;;;;;;7.22;45.21;101791.41;117144;1183;23538;-48
2021/10/02 04:03:57;;;;;;;23.30;7.20;;;;;;;7.28;45.03;101790.48;117272;1183;21864;-47
2021/10/02 04:06:26;;;;;;;23.60;6.60;;;;;;;7.34;45.31;101791.52;117368;1185;22918;-48
2021/10/02 04:08:54;;;;;;;12.80;6.10;;;;;;;7.40;45.20;101791.81;117290;1185;23541;-48
2021/10/02 04:11:42;;;;;;;11.00;5.40;;;;;;;7.47;45.29;101793.39;117339;1185;21965;-48
2021/10/02 04:14:10;;;;;;;11.80;5.90;;;;;;;7.54;45.45;101792.48;117344;1185;24172;-48
2021/10/02 04:16:59;;;;;;;12.80;5.90;;;;;;;7.60;45.29;101794.03;117256;1188;21850;-48
2021/10/02 04:19:30;;;;;;;12.40;6.60;;;;;;;7.65;45.38;101795.36;117283;1182;23542;-48
2021/10/02 04:22:18;;;;;;;17.70;5.60;;;;;;;7.69;45.28;101790.39;117205;1185;23461;-48
2021/10/02 04:24:47;;;;;;;19.10;6.30;;;;;;;7.72;45.36;101792.04;117299;1183;21857;-48
2021/10/02 04:27:16;;;;;;;15.20;5.70;;;;;;;7.77;45.35;101791.96;117281;1186;21868;-47
2021/10/02 04:29:47;;;;;;;12.90;5.90;;;;;;;7.82;45.50;101790.66;117256;1184;21858;-48
2021/10/02 04:32:15;;;;;;;9.70;5.60;;;;;;;7.89;45.48;101791.86;117255;1185;23541;-48
2021/10/02 04:34:44;;;;;;;15.40;6.90;;;;;;;7.93;45.48;101791.26;117286;1189;23576;-48
2021/10/02 04:37:12;;;;;;;11.60;6.20;;;;;;;7.96;45.35;101794.29;117278;1182;21857;-48
2021/10/02 04:39:40;;;;;;;11.70;6.50;;;;;;;8.00;45.49;101792.96;117290;1185;23544;-49
2021/10/02 04:42:09;;;;;;;9.40;5.60;;;;;;;8.02;45.51;101791.44;117325;1183;23541;-49
2021/10/02 04:44:38;;;;;;;15.70;6.40;;;;;;;8.06;45.46;101789.77;117324;1186;22743;-50
2021/10/02 04:47:06;;;;;;;14.10;6.10;;;;;;;8.10;45.28;101790.39;117286;1185;23557;-49
2021/10/02 04:49:35;;;;;;;14.00;5.70;;;;;;;8.15;45.42;101793.28;117255;1185;23544;-51
2021/10/02 04:52:03;;;;;;;10.70;6.00;;;;;;;8.23;45.61;101793.62;117337;1182;23449;-48
2021/10/02 04:54:31;;;;;;;11.50;5.90;;;;;;;8.30;45.43;101792.89;117353;1185;23576;-48
2021/10/02 04:56:59;;;;;;;16.40;7.60;;;;;;;8.40;45.56;101797.08;117312;1187;21848;-49
2021/10/02 04:59:27;;;;;;;12.10;6.30;;;;;;;8.50;45.55;101796.95;117300;1182;22920;-49
2021/10/02 05:01:55;;;;;;;12.90;6.00;;;;;;;8.60;45.67;101796.11;117272;1186;21852;-50
2021/10/02 05:04:24;;;;;;;13.00;5.90;;;;;;;8.69;45.60;101793.46;117310;1186;23541;-49
2021/10/02 05:07:12;;;;;;;10.10;5.60;;;;;;;8.82;45.66;101795.09;117247;1189;22921;-49
2021/10/02 05:09:42;;;;;;;11.00;5.70;;;;;;;8.92;45.73;101791.42;117323;1185;23633;-53
2021/10/02 05:12:12;;;;;;;17.50;6.70;;;;;;;9.06;45.85;101793.58;117256;1185;21859;-53
2021/10/02 05:15:00;;;;;;;12.30;5.80;;;;;;;9.33;46.04;101797.33;117240;1186;23516;-50
2021/10/02 05:17:28;;;;;;;10.60;5.90;;;;;;;9.55;46.09;101794.86;117240;1185;23544;-51
2021/10/02 05:20:11;;;;;;;10.80;6.10;;;;;;;9.73;46.04;101794.23;117209;1182;23544;-50
2021/10/02 05:22:39;;;;;;;10.30;6.10;;;;;;;9.84;45.91;101797.02;117289;1185;21855;-50
2021/10/02 05:25:07;;;;;;;10.90;6.20;;;;;;;9.92;46.02;101800.81;117261;1185;21855;-50
2021/10/02 05:27:36;;;;;;;10.90;6.50;;;;;;;10.05;46.07;101799.05;117342;1182;22958;-51
2021/10/02 05:30:05;;;;;;;14.00;6.80;;;;;;;10.19;46.09;101803.23;117334;1182;21854;-51
2021/10/02 05:32:33;;;;;;;12.10;6.20;;;;;;;10.33;46.21;101797.80;117334;1185;21855;-51
2021/10/02 05:35:04;;;;;;;10.60;6.10;;;;;;;10.48;46.27;101796.59;117258;1183;21868;-50
2021/10/02 05:37:32;;;;;;;9.20;5.90;;;;;;;10.65;46.18;101796.58;117275;1186;22660;-51
2021/10/02 05:40:00;;;;;;;14.70;6.10;;;;;;;10.87;46.14;101789.05;117299;1188;21940;-53
2021/10/02 05:42:28;;;;;;;10.50;6.30;;;;;;;11.05;46.13;101784.14;117379;1185;21971;-52
2021/10/02 05:44:57;;;;;;;11.90;6.30;;;;;;;11.21;46.15;101783.55;117437;1185;23567;-50
2021/10/02 05:47:25;;;;;;;12.70;5.90;;;;;;;11.35;46.16;101778.91;117338;1183;23570;-50
2021/10/02 05:49:53;;;;;;;9.60;5.40;;;;;;;11.50;46.17;101776.91;117256;1183;22609;-51
2021/10/02 05:52:21;;;;;;;15.00;6.00;;;;;;;11.67;46.11;101777.70;117311;1182;22169;-50
2021/10/02 05:54:50;;;;;;;11.70;5.90;;;;;;;11.85;46.13;101775.50;117301;1186;23658;-52
2021/10/02 05:57:19;;;;;;;13.30;6.10;;;;;;;12.05;46.22;101775.10;117264;1183;21918;-50
2021/10/02 05:59:47;;;;;;;11.60;6.40;;;;;;;12.23;46.14;101774.27;117301;1186;23557;-52
2021/10/02 06:02:16;;;;;;;11.00;6.10;;;;;;;12.39;46.52;101770.98;117394;1183;22618;-53
2021/10/02 06:04:44;;;;;;;10.50;6.10;;;;;;;12.57;46.53;101770.65;117267;1182;23541;-52
2021/10/02 06:07:13;;;;;;;9.40;5.70;;;;;;;12.77;46.43;101770.16;117269;1183;23553;-52
2021/10/02 06:09:41;;;;;;;9.50;6.10;;;;;;;12.96;46.31;101771.76;117249;1186;23557;-51
2021/10/02 06:12:11;;;;;;;11.50;6.20;;;;;;;13.09;46.30;101771.57;117268;1186;23566;-52
2021/10/02 06:14:39;;;;;;;11.30;5.80;;;;;;;13.21;46.30;101772.63;117316;1182;23869;-52
2021/10/02 06:17:07;;;;;;;10.50;6.30;;;;;;;13.40;46.32;101772.63;117340;1183;23542;-51
2021/10/02 06:19:35;;;;;;;11.30;6.10;;;;;;;13.64;46.57;101772.40;117229;1182;23544;-51
2021/10/02 06:22:06;;;;;;;9.50;6.20;;;;;;;13.90;46.67;101772.31;117450;1186;21851;-52
2021/10/02 06:24:35;;;;;;;11.70;6.20;;;;;;;14.15;46.63;101773.27;117287;1182;23551;-52
2021/10/02 06:27:04;;;;;;;10.80;5.20;;;;;;;14.39;46.59;101773.50;117328;1185;23567;-54
2021/10/02 06:29:33;;;;;;;8.10;5.00;;;;;;;14.61;46.56;101771.58;117314;1186;23018;-51
2021/10/02 06:32:02;;;;;;;9.50;5.60;;;;;;;14.85;46.61;101768.98;117306;1186;21860;-51
2021/10/02 06:34:31;;;;;;;11.10;6.10;;;;;;;15.08;46.48;101768.79;117336;1189;22959;-52
2021/10/02 06:36:59;;;;;;;15.80;6.40;;;;;;;15.34;46.54;101764.83;117338;1185;23541;-52
2021/10/02 06:39:27;;;;;;;8.40;4.90;;;;;;;15.59;46.50;101764.73;117277;1186;23545;-53
2021/10/02 06:41:55;;;;;;;11.60;5.60;;;;;;;15.76;46.42;101764.02;117326;1186;21856;-52
2021/10/02 06:44:24;;;;;;;12.80;5.30;;;;;;;15.96;46.40;101764.86;117303;1186;23566;-52
2021/10/02 06:46:52;;;;;;;10.70;5.70;;;;;;;16.18;46.43;101759.80;117362;1185;23547;-53
2021/10/02 06:49:23;;;;;;;8.30;4.60;;;;;;;16.42;46.31;101761.77;117217;1185;22935;-53
2021/10/02 06:51:51;;;;;;;8.30;5.60;;;;;;;16.61;46.22;101759.36;117891;1185;23547;-53
2021/10/02 06:54:20;;;;;;;9.00;5.20;;;;;;;16.77;46.25;101756.45;117235;1186;23441;-52
2021/10/02 06:56:49;;;;;;;11.40;5.00;;;;;;;16.91;46.06;101756.23;117271;1186;21844;-52
2021/10/02 06:59:17;;;;;;;7.70;4.90;;;;;;;17.05;46.07;101755.48;117226;1183;22012;-52
2021/10/02 07:01:46;;;;;;;13.50;5.00;;;;;;;17.20;46.05;101754.67;117397;1182;23541;-61
2021/10/02 07:04:15;;;;;;;9.30;4.50;;;;;;;17.40;46.07;101751.48;117361;1186;21856;-61
2021/10/02 07:06:58;;;;;;;22.80;5.40;;;;;;;17.62;46.07;101746.26;117255;1185;23544;-62
2021/10/02 07:09:27;;;;;;;16.50;5.60;;;;;;;17.86;46.01;101744.54;117405;1177;23622;-63
2021/10/02 07:11:55;;;;;;;9.50;4.70;;;;;;;18.09;46.10;101741.60;117284;1185;24165;-62
2021/10/02 07:14:24;;;;;;;9.10;4.60;;;;;;;18.28;46.02;101736.91;117556;1185;23625;-62
2021/10/02 07:17:13;;;;;;;7.60;4.40;;;;;;;18.53;45.98;101732.77;117263;1188;23631;-62
2021/10/02 07:19:41;;;;;;;8.50;4.20;;;;;;;18.76;45.99;101730.63;117318;1185;21855;-62
2021/10/02 07:22:34;;;;;;;6.30;4.00;;;;;;;18.99;45.89;101731.65;117295;1186;21878;-61
2021/10/02 07:25:04;;;;;;;9.80;4.70;;;;;;;19.17;45.76;101727.98;117340;1183;23567;-60
2021/10/02 07:27:32;;;;;;;8.50;4.40;;;;;;;19.31;45.64;101723.33;117306;1188;21849;-61
2021/10/02 07:30:01;;;;;;;7.00;3.70;;;;;;;19.51;45.60;101720.30;117363;1182;23590;-60
2021/10/02 07:32:36;;;;;;;6.00;3.50;;;;;;;19.67;45.56;101715.20;117307;1188;23539;-61
2021/10/02 07:35:06;;;;;;;7.80;3.40;;;;;;;19.78;45.34;101716.66;117325;1183;21857;-62
2021/10/02 07:37:35;;;;;;;7.70;3.40;;;;;;;19.90;45.38;101719.56;117328;1186;22458;-62
2021/10/02 07:40:04;;;;;;;7.80;3.60;;;;;;;20.05;45.33;101715.55;117482;1183;21921;-62
2021/10/02 07:42:32;;;;;;;6.40;3.40;;;;;;;20.18;45.21;101713.92;117291;1185;22849;-60
2021/10/02 07:45:09;;;;;;;5.30;2.90;;;;;;;20.29;45.15;101714.09;117164;1186;23492;-61
2021/10/02 07:47:42;;;;;;;5.10;3.00;;;;;;;20.40;45.06;101709.45;117271;1185;21857;-62
2021/10/02 07:50:11;;;;;;;8.80;2.50;;;;;;;20.50;45.00;101710.21;117253;1185;21845;-61
2021/10/02 07:52:40;;;;;;;8.30;2.90;;;;;;;20.61;44.97;101708.96;117298;1186;21859;-61
2021/10/02 07:55:09;;;;;;;7.10;2.70;;;;;;;20.73;44.91;101708.38;117321;1183;21858;-62
2021/10/02 07:57:38;;;;;;;3.80;2.20;;;;;;;20.80;44.83;101707.27;117365;1186;23547;-62
2021/10/02 08:00:12;;;;;;;3.30;2.20;;;;;;;20.86;44.82;101703.70;117293;1186;21855;-62
2021/10/02 08:02:45;;;;;;;4.30;2.80;;;;;;;20.99;44.76;101704.30;117266;1185;23563;-63
2021/10/02 08:05:13;;;;;;;7.10;3.00;;;;;;;21.08;44.73;101706.66;117306;1185;21940;-62
2021/10/02 08:07:43;;;;;;;5.10;3.00;;;;;;;21.17;44.68;101706.02;117345;1182;21855;-61
2021/10/02 08:10:14;;;;;;;4.50;2.50;;;;;;;21.22;44.54;101702.60;117317;1176;23468;-62
2021/10/02 08:12:42;;;;;;;3.50;2.10;;;;;;;21.28;44.54;101702.93;117347;1183;22935;-63
2021/10/02 08:15:30;;;;;;;4.20;2.20;;;;;;;21.37;44.45;101699.40;117306;1186;21860;-60
2021/10/02 08:17:58;;;;;;;3.50;2.10;;;;;;;21.46;44.44;101695.12;117230;1186;21912;-62
2021/10/02 08:20:46;;;;;;;3.60;2.20;;;;;;;21.60;44.36;101695.55;117101;1185;23017;-61
2021/10/02 08:23:16;;;;;;;7.70;2.80;;;;;;;21.74;44.35;101691.79;117307;1185;21857;-62
2021/10/02 08:26:04;;;;;;;4.80;2.30;;;;;;;21.82;44.35;101690.78;117273;1186;23462;-60
2021/10/02 08:28:34;;;;;;;4.90;2.40;;;;;;;21.92;44.26;101688.60;117361;1182;22640;-62
2021/10/02 08:31:05;;;;;;;4.20;2.40;;;;;;;22.03;44.22;101686.20;117316;1186;22723;-62
2021/10/02 08:33:33;;;;;;;6.60;2.70;;;;;;;22.15;44.12;101690.20;117395;1183;22916;-61
2021/10/02 08:36:01;;;;;;;7.40;2.60;;;;;;;22.25;44.03;101686.78;117279;1185;21867;-62
2021/10/02 08:38:30;;;;;;;5.20;2.50;;;;;;;22.35;44.04;101683.52;117318;1186;23544;-63
2021/10/02 08:40:58;;;;;;;5.00;2.60;;;;;;;22.49;43.92;101682.77;117371;1182;22405;-63
2021/10/02 08:43:30;;;;;;;5.10;2.90;;;;;;;22.61;43.89;101683.38;117284;1185;23570;-62
2021/10/02 08:46:03;;;;;;;4.50;2.70;;;;;;;22.72;43.92;101678.77;117115;1186;21858;-62
2021/10/02 08:48:31;;;;;;;7.10;2.90;;;;;;;22.84;43.99;101670.73;117284;1182;21864;-63
2021/10/02 08:51:19;;;;;;;8.40;3.30;;;;;;;22.94;43.88;101678.71;117386;1185;24258;-62
2021/10/02 08:53:48;;;;;;;9.00;2.70;;;;;;;23.03;43.85;101673.66;117292;1186;23547;-62
2021/10/02 08:56:17;;;;;;;8.20;3.50;;;;;;;23.15;43.76;101670.29;117301;1186;21902;-62
2021/10/02 08:58:46;;;;;;;4.90;2.90;;;;;;;23.21;43.71;101669.48;117105;1187;23836;-62
2021/10/02 09:01:18;;;;;;;6.00;3.30;;;;;;;23.26;43.46;101668.91;117185;1182;23544;-63
2021/10/02 09:03:46;;;;;;;6.10;2.60;;;;;;;23.36;43.46;101666.34;117293;1185;24142;-62
2021/10/02 09:06:15;;;;;;;7.10;3.20;;;;;;;23.42;43.37;101668.36;117249;1185;23477;-61
2021/10/02 09:08:43;;;;;;;5.80;3.00;;;;;;;23.49;43.41;101663.43;117332;1186;23566;-62
2021/10/02 09:11:24;;;;;;;7.70;3.30;;;;;;;23.60;43.35;101659.35;116905;1191;23550;-62
2021/10/02 09:13:52;;;;;;;7.10;3.00;;;;;;;23.75;43.31;101658.45;117136;1182;21853;-62
2021/10/02 09:16:40;;;;;;;5.70;2.60;;;;;;;23.95;43.28;101659.49;117045;1187;21855;-62
2021/10/02 09:19:09;;;;;;;4.40;2.80;;;;;;;24.10;43.22;101658.43;117138;1186;23566;-62
2021/10/02 09:21:45;;;;;;;6.40;3.10;;;;;;;24.24;43.19;101653.98;117198;1186;23547;-62
2021/10/02 09:24:38;;;;;;;12.70;4.70;;;;;;;24.39;43.12;101653.22;117272;1189;21875;-62
2021/10/02 09:27:17;;;;;;;5.00;3.20;;;;;;;24.44;43.00;101653.69;117272;1186;21858;-61
2021/10/02 09:30:11;;;;;;;6.20;3.00;;;;;;;24.45;42.80;101650.02;117200;1188;22911;-62
2021/10/02 09:32:44;;;;;;;5.80;3.30;;;;;;;24.52;42.68;101649.16;117291;1186;21871;-61
2021/10/02 09:35:13;;;;;;;4.00;2.60;;;;;;;24.60;42.62;101650.55;117274;1183;23566;-62
2021/10/02 09:37:45;;;;;;;4.90;2.70;;;;;;;24.67;42.83;101649.65;117318;1182;22917;-64
2021/10/02 09:40:18;;;;;;;5.10;2.90;;;;;;;24.80;42.89;101647.20;117176;1186;21871;-62
2021/10/02 09:42:49;;;;;;;4.60;2.70;;;;;;;24.95;42.75;101645.55;117264;1182;23547;-62
2021/10/02 09:45:21;;;;;;;4.60;2.30;;;;;;;24.98;42.68;101641.95;117295;1186;21858;-62
2021/10/02 09:47:52;;;;;;;5.20;2.70;;;;;;;25.01;42.56;101642.51;117294;1184;23569;-63
2021/10/02 09:50:25;;;;;;;6.00;2.40;;;;;;;25.07;42.53;101643.44;117301;1182;23467;-62
2021/10/02 09:53:01;;;;;;;5.70;2.70;;;;;;;25.14;42.50;101646.67;117310;1183;23547;-61
2021/10/02 09:55:32;;;;;;;4.80;2.60;;;;;;;25.19;42.48;101641.04;117316;1182;22935;-63
2021/10/02 09:58:11;;;;;;;5.00;2.10;;;;;;;25.23;42.39;101636.11;117320;1185;23491;-62
2021/10/02 10:00:46;;;;;;;10.30;2.60;;;;;;;25.31;42.34;101632.82;117308;1182;23544;-64
2021/10/02 10:03:16;;;;;;;5.00;2.70;;;;;;;25.41;42.40;101631.59;117396;1185;22625;-62
2021/10/02 10:05:50;;;;;;;7.10;2.30;;;;;;;25.48;42.36;101634.11;117305;1185;23255;-63
2021/10/02 10:08:21;;;;;;;4.50;2.10;;;;;;;25.52;42.30;101628.11;117287;1185;22238;-61
2021/10/02 10:11:10;;;;;;;4.80;2.20;;;;;;;25.55;42.28;101623.63;117233;1185;23550;-62
2021/10/02 10:13:39;;;;;;;13.30;2.50;;;;;;;25.66;42.24;101620.71;117270;1186;22921;-64
2021/10/02 10:16:36;;;;;;;5.60;2.50;;;;;;;25.75;42.22;101617.32;117220;1185;21845;-62
2021/10/02 10:19:21;;;;;;;4.10;2.00;;;;;;;25.80;42.19;101615.95;117280;1185;23584;-61
2021/10/02 10:22:10;;;;;;;4.20;1.80;;;;;;;25.87;42.18;101612.52;117268;1185;22929;-63
2021/10/02 10:24:40;;;;;;;6.20;2.50;;;;;;;25.96;42.18;101608.95;117286;1183;21867;-63
2021/10/02 10:27:08;;;;;;;5.30;2.50;;;;;;;26.05;41.99;101604.61;117289;1185;21856;-62
2021/10/02 10:29:41;;;;;;;4.70;2.50;;;;;;;26.08;41.94;101600.52;117159;1183;21899;-64
2021/10/02 10:32:11;;;;;;;3.30;1.90;;;;;;;26.14;41.97;101597.30;117166;1185;23615;-61
2021/10/02 10:34:41;;;;;;;3.10;1.70;;;;;;;26.24;41.91;101598.52;117222;1182;23534;-62
2021/10/02 10:37:10;;;;;;;3.20;1.90;;;;;;;26.30;41.70;101595.64;117318;1186;21858;-62
2021/10/02 10:39:39;;;;;;;2.80;2.00;;;;;;;26.31;41.61;101597.23;117273;1182;22642;-61
2021/10/02 10:42:08;;;;;;;5.00;2.00;;;;;;;26.34;41.58;101594.48;117178;1182;21925;-61
2021/10/02 10:44:36;;;;;;;3.40;1.80;;;;;;;26.37;41.57;101588.44;117250;1185;21857;-62
2021/10/02 10:47:04;;;;;;;3.30;1.80;;;;;;;26.39;41.51;101590.27;117036;1185;23547;-62
2021/10/02 10:49:32;;;;;;;5.90;2.10;;;;;;;26.38;41.49;101589.10;117157;1186;21860;-62
2021/10/02 10:52:04;;;;;;;5.00;2.00;;;;;;;26.40;41.43;101581.20;117266;1186;23579;-62
2021/10/02 10:54:32;;;;;;;5.50;2.50;;;;;;;26.40;41.31;101581.21;117045;1186;23103;-62
2021/10/02 10:57:36;;;;;;;7.20;1.60;;;;;;;26.41;41.24;101573.95;117191;1185;22905;-62
2021/10/02 11:00:10;;;;;;;5.10;2.10;;;;;;;26.46;41.18;101575.64;117232;1185;23529;-61
2021/10/02 11:02:49;;;;;;;3.20;1.60;;;;;;;26.47;41.32;101569.64;117226;1185;21884;-62
2021/10/02 11:05:35;;;;;;;2.50;1.40;;;;;;;26.46;41.22;101566.30;117212;1181;23563;-61
2021/10/02 11:08:08;;;;;;;2.00;1.20;;;;;;;26.48;41.16;101567.45;117340;1185;21851;-62
2021/10/02 11:10:45;;;;;;;4.10;1.50;;;;;;;26.54;41.04;101566.30;117356;1182;21843;-61
2021/10/02 11:13:29;;;;;;;2.70;1.70;;;;;;;26.58;41.07;101559.98;117340;1185;21858;-62
2021/10/02 11:16:42;;;;;;;4.40;1.90;;;;;;;26.67;41.02;101558.90;117243;1186;23569;-62
2021/10/02 11:19:32;;;;;;;2.50;1.50;;;;;;;26.74;40.99;101554.32;117339;1183;21856;-60
2021/10/02 11:23:04;;;;;;;4.60;1.90;;;;;;;26.70;40.71;101551.86;117237;1186;22918;-60
2021/10/02 11:25:32;;;;;;;2.40;1.50;;;;;;;26.67;40.71;101557.46;117300;1186;21858;-62
2021/10/02 11:28:27;;;;;;;2.80;1.70;;;;;;;26.67;40.63;101557.42;117352;1185;21860;-62
2021/10/02 11:31:00;;;;;;;3.30;1.80;;;;;;;26.66;40.64;101555.87;117307;1182;23566;-62
2021/10/02 11:33:35;;;;;;;2.90;1.40;;;;;;;26.68;40.52;101553.98;117298;1186;21845;-62
2021/10/02 11:36:32;;;;;;;3.90;1.60;;;;;;;26.71;40.44;101553.57;117332;1184;22197;-61
2021/10/02 11:39:12;;;;;;;3.70;1.70;;;;;;;26.64;40.46;101546.29;117348;1185;21859;-62
2021/10/02 11:42:18;;;;;;;5.90;1.60;;;;;;;26.59;40.56;101549.48;117327;1185;23547;-62
2021/10/02 11:44:48;;;;;;;2.70;1.40;;;;;;;26.57;40.56;101546.33;117332;1185;21857;-61
2021/10/02 11:47:34;;;;;;;3.60;1.60;;;;;;;26.56;40.42;101547.48;117305;1184;23548;-61
2021/10/02 11:50:12;;;;;;;2.00;1.30;;;;;;;26.53;40.35;101545.12;117357;1186;23438;-60
2021/10/02 11:52:44;;;;;;;2.10;1.20;;;;;;;26.48;40.21;101542.39;117327;1183;23546;-62
2021/10/02 11:55:51;;;;;;;3.30;1.30;;;;;;;26.47;40.25;101548.60;117375;1185;23566;-61
2021/10/02 11:58:24;;;;;;;;;;;;;;;26.51;40.25;101544.58;117345;1185;23656;-61
2021/10/02 12:00:58;;;;;;;4.70;1.60;;;;;;;26.54;40.18;101545.09;117371;1188;22038;-62
2021/10/02 12:03:33;;;;;;;2.80;1.10;;;;;;;26.52;40.15;101544.88;117314;1182;23540;-62
2021/10/02 12:06:02;;;;;;;4.50;1.50;;;;;;;26.52;40.22;101542.32;117385;1184;23541;-62
2021/10/02 12:08:31;;;;;;;3.70;1.20;;;;;;;26.54;40.06;101541.63;117348;1184;23832;-61
2021/10/02 12:11:09;;;;;;;4.10;1.50;;;;;;;26.54;40.08;101541.08;117089;1186;23577;-61
2021/10/02 12:13:39;;;;;;;2.50;1.20;;;;;;;26.56;40.07;101537.42;117319;1185;21844;-61
2021/10/02 12:16:29;;;;;;;3.80;1.60;;;;;;;26.57;39.97;101534.48;117298;1185;23439;-62
2021/10/02 12:19:08;;;;;;;2.50;1.40;;;;;;;26.56;39.89;101535.05;117289;1184;23547;-61
2021/10/02 12:21:58;;;;;;;4.30;1.60;;;;;;;26.54;39.85;101533.89;117270;1182;23579;-62
2021/10/02 12:24:36;;;;;;;4.00;1.20;;;;;;;26.50;39.74;101538.11;117233;1184;21863;-63
2021/10/02 12:27:10;;;;;;;4.30;1.30;;;;;;;26.41;39.64;101539.42;117375;1182;23544;-62
2021/10/02 12:29:41;;;;;;;3.80;1.50;;;;;;;26.31;39.54;101531.19;117368;1182;21858;-62
2021/10/02 12:32:13;;;;;;;14.90;4.70;;;;;;;26.23;39.57;101524.29;117336;1182;23794;-63
2021/10/02 12:34:49;;;;;;;17.50;3.20;;;;;;;26.17;39.60;101522.66;117346;1183;21858;-63
2021/10/02 12:37:21;;;;;;;10.30;3.10;;;;;;;26.11;39.54;101523.55;117386;1183;22611;-63
2021/10/02 12:39:57;;;;;;;7.60;1.80;;;;;;;26.07;39.55;101521.45;117293;1185;23556;-62